sensor_id;sensor_type;location;lat;lon;timestamp;P1;durP1;ratioP1;P2;durP2;ratioP2
41446;SDS011;27185;52.040;4.490;2024-02-21T00:02:17;22.00;;;3.58;;
41446;SDS011;27185;52.040;4.490;2024-02-21T00:05:03;23.92;;;3.08;;
41446;SDS011;27185;52.040;4.490;2024-02-21T00:07:49;19.88;;;3.00;;
41446;SDS011;27185;52.040;4.490;2024-02-21T00:10:34;20.85;;;3.10;;
41446;SDS011;27185;52.040;4.490;2024-02-21T00:13:20;22.48;;;3.13;;
41446;SDS011;27185;52.040;4.490;2024-02-21T00:16:06;24.67;;;4.03;;
41446;SDS011;27185;52.040;4.490;2024-02-21T00:18:52;27.77;;;3.28;;
41446;SDS011;27185;52.040;4.490;2024-02-21T00:21:37;19.40;;;3.00;;
41446;SDS011;27185;52.040;4.490;2024-02-21T00:24:23;17.20;;;3.25;;
41446;SDS011;27185;52.040;4.490;2024-02-21T00:27:08;25.75;;;4.28;;
41446;SDS011;27185;52.040;4.490;2024-02-21T00:29:54;14.57;;;2.63;;
41446;SDS011;27185;52.040;4.490;2024-02-21T00:32:39;21.40;;;3.92;;
41446;SDS011;27185;52.040;4.490;2024-02-21T00:35:25;17.67;;;2.42;;
41446;SDS011;27185;52.040;4.490;2024-02-21T00:38:10;12.75;;;2.50;;
41446;SDS011;27185;52.040;4.490;2024-02-21T00:40:56;16.08;;;2.10;;
41446;SDS011;27185;52.040;4.490;2024-02-21T00:43:42;17.48;;;2.65;;
41446;SDS011;27185;52.040;4.490;2024-02-21T00:46:27;16.63;;;3.05;;
41446;SDS011;27185;52.040;4.490;2024-02-21T00:49:13;11.23;;;2.55;;
41446;SDS011;27185;52.040;4.490;2024-02-21T00:51:58;19.38;;;2.50;;
41446;SDS011;27185;52.040;4.490;2024-02-21T00:54:44;16.63;;;3.40;;
41446;SDS011;27185;52.040;4.490;2024-02-21T00:57:30;20.55;;;2.70;;
41446;SDS011;27185;52.040;4.490;2024-02-21T01:00:17;20.08;;;3.40;;
41446;SDS011;27185;52.040;4.490;2024-02-21T01:03:02;17.33;;;2.80;;
41446;SDS011;27185;52.040;4.490;2024-02-21T01:05:48;18.13;;;2.70;;
41446;SDS011;27185;52.040;4.490;2024-02-21T01:08:34;24.45;;;3.70;;
41446;SDS011;27185;52.040;4.490;2024-02-21T01:11:19;19.15;;;2.63;;
41446;SDS011;27185;52.040;4.490;2024-02-21T01:14:05;20.48;;;2.92;;
41446;SDS011;27185;52.040;4.490;2024-02-21T01:16:51;23.30;;;2.95;;
41446;SDS011;27185;52.040;4.490;2024-02-21T01:19:36;22.13;;;2.97;;
41446;SDS011;27185;52.040;4.490;2024-02-21T01:22:22;18.33;;;2.85;;
41446;SDS011;27185;52.040;4.490;2024-02-21T01:25:07;16.17;;;2.33;;
41446;SDS011;27185;52.040;4.490;2024-02-21T01:27:54;19.67;;;3.75;;
41446;SDS011;27185;52.040;4.490;2024-02-21T01:30:40;23.17;;;2.47;;
41446;SDS011;27185;52.040;4.490;2024-02-21T01:33:25;20.30;;;2.47;;
41446;SDS011;27185;52.040;4.490;2024-02-21T01:36:11;14.15;;;2.22;;
41446;SDS011;27185;52.040;4.490;2024-02-21T01:38:57;17.42;;;2.33;;
41446;SDS011;27185;52.040;4.490;2024-02-21T01:41:42;16.30;;;2.45;;
41446;SDS011;27185;52.040;4.490;2024-02-21T01:44:28;18.25;;;2.47;;
41446;SDS011;27185;52.040;4.490;2024-02-21T01:47:13;21.08;;;3.33;;
41446;SDS011;27185;52.040;4.490;2024-02-21T01:50:00;15.45;;;2.50;;
41446;SDS011;27185;52.040;4.490;2024-02-21T01:52:47;14.60;;;2.47;;
41446;SDS011;27185;52.040;4.490;2024-02-21T01:55:34;22.90;;;3.17;;
41446;SDS011;27185;52.040;4.490;2024-02-21T01:58:20;23.15;;;2.50;;
41446;SDS011;27185;52.040;4.490;2024-02-21T02:01:06;19.02;;;2.42;;
41446;SDS011;27185;52.040;4.490;2024-02-21T02:03:52;20.05;;;2.42;;
41446;SDS011;27185;52.040;4.490;2024-02-21T02:06:38;23.20;;;3.13;;
41446;SDS011;27185;52.040;4.490;2024-02-21T02:09:24;20.10;;;3.05;;
41446;SDS011;27185;52.040;4.490;2024-02-21T02:12:10;19.83;;;3.40;;
41446;SDS011;27185;52.040;4.490;2024-02-21T02:14:59;13.55;;;2.75;;
41446;SDS011;27185;52.040;4.490;2024-02-21T02:17:46;16.42;;;2.72;;
41446;SDS011;27185;52.040;4.490;2024-02-21T02:20:31;15.68;;;2.88;;
41446;SDS011;27185;52.040;4.490;2024-02-21T02:26:07;16.63;;;3.33;;
41446;SDS011;27185;52.040;4.490;2024-02-21T02:28:52;13.73;;;2.28;;
41446;SDS011;27185;52.040;4.490;2024-02-21T02:31:38;11.88;;;2.10;;
41446;SDS011;27185;52.040;4.490;2024-02-21T02:34:24;19.17;;;3.10;;
41446;SDS011;27185;52.040;4.490;2024-02-21T02:37:09;17.52;;;2.72;;
41446;SDS011;27185;52.040;4.490;2024-02-21T02:39:55;16.33;;;3.20;;
41446;SDS011;27185;52.040;4.490;2024-02-21T02:42:40;16.13;;;2.92;;
41446;SDS011;27185;52.040;4.490;2024-02-21T02:45:26;18.58;;;2.63;;
41446;SDS011;27185;52.040;4.490;2024-02-21T02:48:12;16.05;;;3.38;;
41446;SDS011;27185;52.040;4.490;2024-02-21T02:50:57;14.07;;;2.80;;
41446;SDS011;27185;52.040;4.490;2024-02-21T02:53:43;15.48;;;2.95;;
41446;SDS011;27185;52.040;4.490;2024-02-21T02:56:28;25.15;;;3.45;;
41446;SDS011;27185;52.040;4.490;2024-02-21T02:59:14;23.70;;;3.30;;
41446;SDS011;27185;52.040;4.490;2024-02-21T03:01:59;14.80;;;2.70;;
41446;SDS011;27185;52.040;4.490;2024-02-21T03:04:45;12.73;;;2.88;;
41446;SDS011;27185;52.040;4.490;2024-02-21T03:07:31;14.35;;;2.97;;
41446;SDS011;27185;52.040;4.490;2024-02-21T03:10:16;10.88;;;2.45;;
41446;SDS011;27185;52.040;4.490;2024-02-21T03:13:02;15.02;;;2.35;;
41446;SDS011;27185;52.040;4.490;2024-02-21T03:15:48;13.82;;;2.50;;
41446;SDS011;27185;52.040;4.490;2024-02-21T03:18:34;11.45;;;2.00;;
41446;SDS011;27185;52.040;4.490;2024-02-21T03:21:19;13.70;;;3.15;;
41446;SDS011;27185;52.040;4.490;2024-02-21T03:24:05;14.65;;;3.00;;
41446;SDS011;27185;52.040;4.490;2024-02-21T03:26:51;8.93;;;2.30;;
41446;SDS011;27185;52.040;4.490;2024-02-21T03:29:36;19.02;;;3.58;;
41446;SDS011;27185;52.040;4.490;2024-02-21T03:32:22;16.83;;;3.85;;
41446;SDS011;27185;52.040;4.490;2024-02-21T03:35:07;12.75;;;2.75;;
41446;SDS011;27185;52.040;4.490;2024-02-21T03:37:53;19.48;;;2.75;;
41446;SDS011;27185;52.040;4.490;2024-02-21T03:40:39;13.00;;;2.67;;
41446;SDS011;27185;52.040;4.490;2024-02-21T03:43:24;22.35;;;3.30;;
41446;SDS011;27185;52.040;4.490;2024-02-21T03:46:10;13.82;;;3.67;;
41446;SDS011;27185;52.040;4.490;2024-02-21T03:48:56;12.38;;;3.75;;
41446;SDS011;27185;52.040;4.490;2024-02-21T03:51:42;15.18;;;3.53;;
41446;SDS011;27185;52.040;4.490;2024-02-21T03:54:27;16.70;;;4.03;;
41446;SDS011;27185;52.040;4.490;2024-02-21T03:57:13;17.35;;;4.25;;
41446;SDS011;27185;52.040;4.490;2024-02-21T03:59:58;14.57;;;4.10;;
41446;SDS011;27185;52.040;4.490;2024-02-21T04:02:44;16.20;;;4.10;;
41446;SDS011;27185;52.040;4.490;2024-02-21T04:05:29;10.80;;;3.28;;
41446;SDS011;27185;52.040;4.490;2024-02-21T04:08:15;11.38;;;3.75;;
41446;SDS011;27185;52.040;4.490;2024-02-21T04:11:01;12.75;;;4.13;;
41446;SDS011;27185;52.040;4.490;2024-02-21T04:13:46;12.23;;;4.00;;
41446;SDS011;27185;52.040;4.490;2024-02-21T04:19:20;12.15;;;3.80;;
41446;SDS011;27185;52.040;4.490;2024-02-21T04:22:05;14.27;;;4.32;;
41446;SDS011;27185;52.040;4.490;2024-02-21T04:24:51;10.57;;;3.85;;
41446;SDS011;27185;52.040;4.490;2024-02-21T04:27:37;13.82;;;5.63;;
41446;SDS011;27185;52.040;4.490;2024-02-21T04:30:23;20.83;;;4.75;;
41446;SDS011;27185;52.040;4.490;2024-02-21T04:33:09;17.20;;;5.85;;
41446;SDS011;27185;52.040;4.490;2024-02-21T04:35:55;16.20;;;5.45;;
41446;SDS011;27185;52.040;4.490;2024-02-21T04:38:40;10.98;;;5.85;;
41446;SDS011;27185;52.040;4.490;2024-02-21T04:41:26;13.43;;;6.03;;
41446;SDS011;27185;52.040;4.490;2024-02-21T04:44:11;15.27;;;6.50;;
41446;SDS011;27185;52.040;4.490;2024-02-21T04:46:57;13.90;;;6.68;;
41446;SDS011;27185;52.040;4.490;2024-02-21T04:49:43;12.05;;;6.03;;
41446;SDS011;27185;52.040;4.490;2024-02-21T04:52:28;14.00;;;6.13;;
41446;SDS011;27185;52.040;4.490;2024-02-21T04:55:15;14.48;;;5.95;;
41446;SDS011;27185;52.040;4.490;2024-02-21T04:58:00;12.98;;;6.65;;
41446;SDS011;27185;52.040;4.490;2024-02-21T05:00:47;15.23;;;7.07;;
41446;SDS011;27185;52.040;4.490;2024-02-21T05:03:33;14.65;;;6.55;;
41446;SDS011;27185;52.040;4.490;2024-02-21T05:06:18;16.70;;;6.88;;
41446;SDS011;27185;52.040;4.490;2024-02-21T05:09:04;12.73;;;6.97;;
41446;SDS011;27185;52.040;4.490;2024-02-21T05:11:50;12.40;;;7.03;;
41446;SDS011;27185;52.040;4.490;2024-02-21T05:14:35;12.23;;;6.25;;
41446;SDS011;27185;52.040;4.490;2024-02-21T05:17:22;12.57;;;7.20;;
41446;SDS011;27185;52.040;4.490;2024-02-21T05:20:08;12.73;;;6.70;;
41446;SDS011;27185;52.040;4.490;2024-02-21T05:22:54;15.93;;;7.13;;
41446;SDS011;27185;52.040;4.490;2024-02-21T05:25:39;15.73;;;7.78;;
41446;SDS011;27185;52.040;4.490;2024-02-21T05:28:25;12.73;;;6.72;;
41446;SDS011;27185;52.040;4.490;2024-02-21T05:31:10;14.68;;;7.40;;
41446;SDS011;27185;52.040;4.490;2024-02-21T05:33:56;14.60;;;7.57;;
41446;SDS011;27185;52.040;4.490;2024-02-21T05:36:42;15.20;;;6.72;;
41446;SDS011;27185;52.040;4.490;2024-02-21T05:39:27;15.00;;;7.40;;
41446;SDS011;27185;52.040;4.490;2024-02-21T05:42:14;15.38;;;8.30;;
41446;SDS011;27185;52.040;4.490;2024-02-21T05:45:00;14.20;;;7.60;;
41446;SDS011;27185;52.040;4.490;2024-02-21T05:47:45;19.75;;;8.55;;
41446;SDS011;27185;52.040;4.490;2024-02-21T05:50:31;14.48;;;8.38;;
41446;SDS011;27185;52.040;4.490;2024-02-21T05:53:17;15.20;;;8.95;;
41446;SDS011;27185;52.040;4.490;2024-02-21T05:56:02;14.10;;;8.98;;
41446;SDS011;27185;52.040;4.490;2024-02-21T05:58:49;14.63;;;9.95;;
41446;SDS011;27185;52.040;4.490;2024-02-21T06:01:35;12.82;;;9.15;;
41446;SDS011;27185;52.040;4.490;2024-02-21T06:04:20;17.20;;;10.35;;
41446;SDS011;27185;52.040;4.490;2024-02-21T06:07:06;13.05;;;9.00;;
41446;SDS011;27185;52.040;4.490;2024-02-21T06:09:51;15.32;;;9.45;;
41446;SDS011;27185;52.040;4.490;2024-02-21T06:12:37;19.83;;;11.05;;
41446;SDS011;27185;52.040;4.490;2024-02-21T06:15:23;14.70;;;9.60;;
41446;SDS011;27185;52.040;4.490;2024-02-21T06:18:08;19.63;;;10.85;;
41446;SDS011;27185;52.040;4.490;2024-02-21T06:20:54;18.63;;;11.50;;
41446;SDS011;27185;52.040;4.490;2024-02-21T06:23:39;20.00;;;12.13;;
41446;SDS011;27185;52.040;4.490;2024-02-21T06:26:25;18.15;;;11.93;;
41446;SDS011;27185;52.040;4.490;2024-02-21T06:29:11;18.17;;;12.30;;
41446;SDS011;27185;52.040;4.490;2024-02-21T06:31:58;17.40;;;11.00;;
41446;SDS011;27185;52.040;4.490;2024-02-21T06:34:44;17.73;;;12.05;;
41446;SDS011;27185;52.040;4.490;2024-02-21T06:37:29;18.15;;;11.07;;
41446;SDS011;27185;52.040;4.490;2024-02-21T06:40:17;18.13;;;10.50;;
41446;SDS011;27185;52.040;4.490;2024-02-21T06:43:04;23.05;;;10.82;;
41446;SDS011;27185;52.040;4.490;2024-02-21T06:45:50;18.50;;;10.20;;
41446;SDS011;27185;52.040;4.490;2024-02-21T06:48:36;18.08;;;10.05;;
41446;SDS011;27185;52.040;4.490;2024-02-21T06:51:22;20.67;;;10.27;;
41446;SDS011;27185;52.040;4.490;2024-02-21T06:54:07;23.30;;;11.27;;
41446;SDS011;27185;52.040;4.490;2024-02-21T06:56:54;16.85;;;10.48;;
41446;SDS011;27185;52.040;4.490;2024-02-21T06:59:40;21.83;;;10.13;;
41446;SDS011;27185;52.040;4.490;2024-02-21T07:02:26;21.98;;;10.60;;
41446;SDS011;27185;52.040;4.490;2024-02-21T07:05:11;20.05;;;11.68;;
41446;SDS011;27185;52.040;4.490;2024-02-21T07:07:57;23.98;;;11.23;;
41446;SDS011;27185;52.040;4.490;2024-02-21T07:10:43;17.08;;;10.93;;
41446;SDS011;27185;52.040;4.490;2024-02-21T07:13:28;19.58;;;11.43;;
41446;SDS011;27185;52.040;4.490;2024-02-21T07:16:14;19.85;;;11.48;;
41446;SDS011;27185;52.040;4.490;2024-02-21T07:18:59;20.55;;;10.95;;
41446;SDS011;27185;52.040;4.490;2024-02-21T07:21:45;19.17;;;10.75;;
41446;SDS011;27185;52.040;4.490;2024-02-21T07:24:30;17.55;;;9.60;;
41446;SDS011;27185;52.040;4.490;2024-02-21T07:27:16;18.98;;;9.88;;
41446;SDS011;27185;52.040;4.490;2024-02-21T07:30:02;19.60;;;10.07;;
41446;SDS011;27185;52.040;4.490;2024-02-21T07:32:49;16.95;;;9.02;;
41446;SDS011;27185;52.040;4.490;2024-02-21T07:35:35;20.23;;;9.77;;
41446;SDS011;27185;52.040;4.490;2024-02-21T07:38:25;22.70;;;10.68;;
41446;SDS011;27185;52.040;4.490;2024-02-21T07:41:11;21.63;;;11.70;;
41446;SDS011;27185;52.040;4.490;2024-02-21T07:43:56;22.77;;;11.40;;
41446;SDS011;27185;52.040;4.490;2024-02-21T07:46:42;23.02;;;12.15;;
41446;SDS011;27185;52.040;4.490;2024-02-21T07:49:28;20.98;;;10.68;;
41446;SDS011;27185;52.040;4.490;2024-02-21T07:52:14;21.25;;;11.13;;
41446;SDS011;27185;52.040;4.490;2024-02-21T07:54:59;21.13;;;12.07;;
41446;SDS011;27185;52.040;4.490;2024-02-21T07:57:45;22.42;;;11.65;;
41446;SDS011;27185;52.040;4.490;2024-02-21T08:00:30;21.52;;;12.10;;
41446;SDS011;27185;52.040;4.490;2024-02-21T08:03:16;23.98;;;12.70;;
41446;SDS011;27185;52.040;4.490;2024-02-21T08:06:03;24.60;;;13.70;;
41446;SDS011;27185;52.040;4.490;2024-02-21T08:08:51;25.38;;;12.40;;
41446;SDS011;27185;52.040;4.490;2024-02-21T08:11:36;25.52;;;12.00;;
41446;SDS011;27185;52.040;4.490;2024-02-21T08:14:22;25.60;;;13.75;;
41446;SDS011;27185;52.040;4.490;2024-02-21T08:17:09;24.88;;;13.55;;
41446;SDS011;27185;52.040;4.490;2024-02-21T08:19:55;23.30;;;13.13;;
41446;SDS011;27185;52.040;4.490;2024-02-21T08:22:41;24.08;;;14.18;;
41446;SDS011;27185;52.040;4.490;2024-02-21T08:25:26;26.60;;;14.45;;
41446;SDS011;27185;52.040;4.490;2024-02-21T08:28:13;22.48;;;12.63;;
41446;SDS011;27185;52.040;4.490;2024-02-21T08:30:59;20.67;;;12.50;;
41446;SDS011;27185;52.040;4.490;2024-02-21T08:33:44;23.83;;;12.82;;
41446;SDS011;27185;52.040;4.490;2024-02-21T08:36:35;23.27;;;12.10;;
41446;SDS011;27185;52.040;4.490;2024-02-21T08:39:21;22.90;;;13.02;;
41446;SDS011;27185;52.040;4.490;2024-02-21T08:42:07;21.83;;;11.88;;
41446;SDS011;27185;52.040;4.490;2024-02-21T08:44:52;24.25;;;14.10;;
41446;SDS011;27185;52.040;4.490;2024-02-21T08:47:41;23.52;;;12.48;;
41446;SDS011;27185;52.040;4.490;2024-02-21T08:50:27;21.67;;;12.68;;
41446;SDS011;27185;52.040;4.490;2024-02-21T08:53:12;25.58;;;14.15;;
41446;SDS011;27185;52.040;4.490;2024-02-21T08:55:59;25.48;;;13.57;;
41446;SDS011;27185;52.040;4.490;2024-02-21T08:58:44;21.85;;;13.93;;
41446;SDS011;27185;52.040;4.490;2024-02-21T09:01:30;21.65;;;14.20;;
41446;SDS011;27185;52.040;4.490;2024-02-21T09:04:16;21.88;;;14.68;;
41446;SDS011;27185;52.040;4.490;2024-02-21T09:07:02;26.70;;;16.40;;
41446;SDS011;27185;52.040;4.490;2024-02-21T09:09:48;27.90;;;15.95;;
41446;SDS011;27185;52.040;4.490;2024-02-21T09:12:34;23.73;;;14.75;;
41446;SDS011;27185;52.040;4.490;2024-02-21T09:15:19;25.58;;;16.27;;
41446;SDS011;27185;52.040;4.490;2024-02-21T09:18:05;21.45;;;13.93;;
41446;SDS011;27185;52.040;4.490;2024-02-21T09:20:51;21.90;;;14.40;;
41446;SDS011;27185;52.040;4.490;2024-02-21T09:23:37;25.77;;;14.25;;
41446;SDS011;27185;52.040;4.490;2024-02-21T09:26:22;20.75;;;12.43;;
41446;SDS011;27185;52.040;4.490;2024-02-21T09:29:08;18.42;;;10.95;;
41446;SDS011;27185;52.040;4.490;2024-02-21T09:31:53;23.08;;;13.07;;
41446;SDS011;27185;52.040;4.490;2024-02-21T09:34:39;18.83;;;11.90;;
41446;SDS011;27185;52.040;4.490;2024-02-21T09:37:24;18.75;;;11.80;;
41446;SDS011;27185;52.040;4.490;2024-02-21T09:40:10;22.45;;;11.93;;
41446;SDS011;27185;52.040;4.490;2024-02-21T09:43:03;22.00;;;11.18;;
41446;SDS011;27185;52.040;4.490;2024-02-21T09:45:51;20.42;;;10.75;;
41446;SDS011;27185;52.040;4.490;2024-02-21T09:51:55;15.43;;;9.90;;
41446;SDS011;27185;52.040;4.490;2024-02-21T09:54:44;14.38;;;8.85;;
41446;SDS011;27185;52.040;4.490;2024-02-21T09:57:30;15.35;;;9.88;;
41446;SDS011;27185;52.040;4.490;2024-02-21T10:00:16;20.15;;;9.20;;
41446;SDS011;27185;52.040;4.490;2024-02-21T10:03:06;20.85;;;10.68;;
41446;SDS011;27185;52.040;4.490;2024-02-21T10:05:52;16.30;;;9.48;;
41446;SDS011;27185;52.040;4.490;2024-02-21T10:08:38;20.27;;;9.50;;
41446;SDS011;27185;52.040;4.490;2024-02-21T10:11:24;15.60;;;9.25;;
41446;SDS011;27185;52.040;4.490;2024-02-21T10:14:10;17.08;;;10.05;;
41446;SDS011;27185;52.040;4.490;2024-02-21T10:16:56;18.73;;;10.02;;
41446;SDS011;27185;52.040;4.490;2024-02-21T10:19:43;15.90;;;9.43;;
41446;SDS011;27185;52.040;4.490;2024-02-21T10:22:29;15.48;;;11.05;;
41446;SDS011;27185;52.040;4.490;2024-02-21T10:25:18;15.93;;;10.13;;
41446;SDS011;27185;52.040;4.490;2024-02-21T10:28:04;18.45;;;10.55;;
41446;SDS011;27185;52.040;4.490;2024-02-21T10:30:50;13.73;;;9.95;;
41446;SDS011;27185;52.040;4.490;2024-02-21T10:33:39;13.45;;;8.82;;
41446;SDS011;27185;52.040;4.490;2024-02-21T10:36:25;16.00;;;7.65;;
41446;SDS011;27185;52.040;4.490;2024-02-21T10:39:11;11.93;;;8.13;;
41446;SDS011;27185;52.040;4.490;2024-02-21T10:41:56;13.77;;;6.40;;
41446;SDS011;27185;52.040;4.490;2024-02-21T10:44:46;9.50;;;6.80;;
41446;SDS011;27185;52.040;4.490;2024-02-21T10:47:38;13.48;;;7.50;;
41446;SDS011;27185;52.040;4.490;2024-02-21T10:50:26;12.88;;;8.23;;
41446;SDS011;27185;52.040;4.490;2024-02-21T10:53:20;11.80;;;8.82;;
41446;SDS011;27185;52.040;4.490;2024-02-21T10:56:28;14.13;;;7.53;;
41446;SDS011;27185;52.040;4.490;2024-02-21T10:59:15;13.20;;;7.90;;
41446;SDS011;27185;52.040;4.490;2024-02-21T11:02:03;12.23;;;9.00;;
41446;SDS011;27185;52.040;4.490;2024-02-21T11:04:49;13.40;;;8.75;;
41446;SDS011;27185;52.040;4.490;2024-02-21T11:07:37;15.63;;;10.25;;
41446;SDS011;27185;52.040;4.490;2024-02-21T11:10:24;12.80;;;10.00;;
41446;SDS011;27185;52.040;4.490;2024-02-21T11:13:10;16.63;;;10.75;;
41446;SDS011;27185;52.040;4.490;2024-02-21T11:16:05;12.63;;;9.88;;
41446;SDS011;27185;52.040;4.490;2024-02-21T11:19:03;12.77;;;9.32;;
41446;SDS011;27185;52.040;4.490;2024-02-21T11:21:55;13.73;;;9.55;;
41446;SDS011;27185;52.040;4.490;2024-02-21T11:24:46;11.45;;;9.55;;
41446;SDS011;27185;52.040;4.490;2024-02-21T11:27:33;15.32;;;9.98;;
41446;SDS011;27185;52.040;4.490;2024-02-21T11:30:19;16.88;;;9.80;;
41446;SDS011;27185;52.040;4.490;2024-02-21T11:33:12;13.35;;;9.70;;
41446;SDS011;27185;52.040;4.490;2024-02-21T11:35:57;12.82;;;10.02;;
41446;SDS011;27185;52.040;4.490;2024-02-21T11:38:43;14.80;;;10.20;;
41446;SDS011;27185;52.040;4.490;2024-02-21T11:41:28;14.35;;;8.95;;
41446;SDS011;27185;52.040;4.490;2024-02-21T11:44:14;15.20;;;9.27;;
41446;SDS011;27185;52.040;4.490;2024-02-21T11:46:59;12.48;;;8.70;;
41446;SDS011;27185;52.040;4.490;2024-02-21T11:49:45;15.85;;;9.48;;
41446;SDS011;27185;52.040;4.490;2024-02-21T11:52:34;14.55;;;8.27;;
41446;SDS011;27185;52.040;4.490;2024-02-21T11:55:19;12.50;;;7.85;;
41446;SDS011;27185;52.040;4.490;2024-02-21T11:58:05;11.85;;;8.38;;
41446;SDS011;27185;52.040;4.490;2024-02-21T12:00:51;14.07;;;8.75;;
41446;SDS011;27185;52.040;4.490;2024-02-21T12:03:37;14.75;;;8.18;;
41446;SDS011;27185;52.040;4.490;2024-02-21T12:06:22;16.70;;;8.20;;
41446;SDS011;27185;52.040;4.490;2024-02-21T12:09:08;16.42;;;8.32;;
41446;SDS011;27185;52.040;4.490;2024-02-21T12:12:01;12.77;;;7.20;;
41446;SDS011;27185;52.040;4.490;2024-02-21T12:14:53;16.50;;;7.90;;
41446;SDS011;27185;52.040;4.490;2024-02-21T12:17:41;13.38;;;7.88;;
41446;SDS011;27185;52.040;4.490;2024-02-21T12:20:26;10.60;;;7.38;;
41446;SDS011;27185;52.040;4.490;2024-02-21T12:23:12;11.38;;;8.57;;
41446;SDS011;27185;52.040;4.490;2024-02-21T12:25:59;12.82;;;8.52;;
41446;SDS011;27185;52.040;4.490;2024-02-21T12:28:44;13.45;;;8.55;;
41446;SDS011;27185;52.040;4.490;2024-02-21T12:31:30;12.75;;;8.32;;
41446;SDS011;27185;52.040;4.490;2024-02-21T12:34:16;12.25;;;8.57;;
41446;SDS011;27185;52.040;4.490;2024-02-21T12:37:02;17.73;;;8.32;;
41446;SDS011;27185;52.040;4.490;2024-02-21T12:39:48;11.02;;;7.60;;
41446;SDS011;27185;52.040;4.490;2024-02-21T12:42:34;13.98;;;8.55;;
41446;SDS011;27185;52.040;4.490;2024-02-21T12:45:20;13.45;;;9.25;;
41446;SDS011;27185;52.040;4.490;2024-02-21T12:48:05;14.50;;;9.00;;
41446;SDS011;27185;52.040;4.490;2024-02-21T12:50:51;17.20;;;10.15;;
41446;SDS011;27185;52.040;4.490;2024-02-21T12:53:36;13.38;;;9.00;;
41446;SDS011;27185;52.040;4.490;2024-02-21T12:56:22;16.10;;;9.57;;
41446;SDS011;27185;52.040;4.490;2024-02-21T12:59:09;15.63;;;10.00;;
41446;SDS011;27185;52.040;4.490;2024-02-21T13:01:54;13.32;;;8.70;;
41446;SDS011;27185;52.040;4.490;2024-02-21T13:04:40;18.05;;;10.13;;
41446;SDS011;27185;52.040;4.490;2024-02-21T13:07:26;17.05;;;10.15;;
41446;SDS011;27185;52.040;4.490;2024-02-21T13:10:12;17.95;;;9.85;;
41446;SDS011;27185;52.040;4.490;2024-02-21T13:12:59;17.27;;;11.05;;
41446;SDS011;27185;52.040;4.490;2024-02-21T13:15:45;19.35;;;11.55;;
41446;SDS011;27185;52.040;4.490;2024-02-21T13:18:31;19.67;;;12.32;;
41446;SDS011;27185;52.040;4.490;2024-02-21T13:21:17;17.65;;;11.73;;
41446;SDS011;27185;52.040;4.490;2024-02-21T13:24:03;18.83;;;10.60;;
41446;SDS011;27185;52.040;4.490;2024-02-21T13:26:49;20.23;;;11.63;;
41446;SDS011;27185;52.040;4.490;2024-02-21T13:29:35;18.73;;;10.20;;
41446;SDS011;27185;52.040;4.490;2024-02-21T13:32:20;14.18;;;9.48;;
41446;SDS011;27185;52.040;4.490;2024-02-21T13:35:06;19.92;;;12.05;;
41446;SDS011;27185;52.040;4.490;2024-02-21T13:37:53;13.45;;;9.77;;
41446;SDS011;27185;52.040;4.490;2024-02-21T13:40:38;20.33;;;9.85;;
41446;SDS011;27185;52.040;4.490;2024-02-21T13:43:24;17.63;;;10.05;;
41446;SDS011;27185;52.040;4.490;2024-02-21T13:46:09;15.30;;;9.52;;
41446;SDS011;27185;52.040;4.490;2024-02-21T13:49:02;18.77;;;8.93;;
41446;SDS011;27185;52.040;4.490;2024-02-21T13:51:52;14.15;;;8.45;;
41446;SDS011;27185;52.040;4.490;2024-02-21T13:54:39;13.35;;;8.88;;
41446;SDS011;27185;52.040;4.490;2024-02-21T13:57:25;12.38;;;8.00;;
41446;SDS011;27185;52.040;4.490;2024-02-21T14:00:11;12.82;;;8.32;;
41446;SDS011;27185;52.040;4.490;2024-02-21T14:02:57;14.52;;;7.13;;
41446;SDS011;27185;52.040;4.490;2024-02-21T14:05:43;15.70;;;8.35;;
41446;SDS011;27185;52.040;4.490;2024-02-21T14:08:28;13.52;;;8.43;;
41446;SDS011;27185;52.040;4.490;2024-02-21T14:11:14;14.98;;;8.48;;
41446;SDS011;27185;52.040;4.490;2024-02-21T14:14:00;14.70;;;8.10;;
41446;SDS011;27185;52.040;4.490;2024-02-21T14:16:45;17.48;;;8.98;;
41446;SDS011;27185;52.040;4.490;2024-02-21T14:19:32;14.10;;;8.67;;
41446;SDS011;27185;52.040;4.490;2024-02-21T14:22:18;11.15;;;7.45;;
41446;SDS011;27185;52.040;4.490;2024-02-21T14:25:05;14.05;;;7.50;;
41446;SDS011;27185;52.040;4.490;2024-02-21T14:27:51;11.07;;;7.57;;
41446;SDS011;27185;52.040;4.490;2024-02-21T14:30:36;13.70;;;7.47;;
41446;SDS011;27185;52.040;4.490;2024-02-21T14:33:22;22.77;;;8.80;;
41446;SDS011;27185;52.040;4.490;2024-02-21T14:36:10;14.52;;;7.70;;
41446;SDS011;27185;52.040;4.490;2024-02-21T14:38:56;12.88;;;7.57;;
41446;SDS011;27185;52.040;4.490;2024-02-21T14:41:42;14.48;;;8.40;;
41446;SDS011;27185;52.040;4.490;2024-02-21T14:44:28;16.13;;;7.05;;
41446;SDS011;27185;52.040;4.490;2024-02-21T14:47:14;9.80;;;6.72;;
41446;SDS011;27185;52.040;4.490;2024-02-21T14:49:59;13.93;;;7.30;;
41446;SDS011;27185;52.040;4.490;2024-02-21T14:52:46;13.73;;;7.13;;
41446;SDS011;27185;52.040;4.490;2024-02-21T14:55:31;12.68;;;7.82;;
41446;SDS011;27185;52.040;4.490;2024-02-21T14:58:17;11.57;;;7.80;;
41446;SDS011;27185;52.040;4.490;2024-02-21T15:01:04;7.93;;;5.90;;
41446;SDS011;27185;52.040;4.490;2024-02-21T15:03:50;10.27;;;6.55;;
41446;SDS011;27185;52.040;4.490;2024-02-21T15:06:36;15.77;;;8.55;;
41446;SDS011;27185;52.040;4.490;2024-02-21T15:09:22;14.23;;;7.03;;
41446;SDS011;27185;52.040;4.490;2024-02-21T15:12:08;10.20;;;7.43;;
41446;SDS011;27185;52.040;4.490;2024-02-21T15:14:53;13.52;;;8.13;;
41446;SDS011;27185;52.040;4.490;2024-02-21T15:17:45;11.88;;;6.93;;
41446;SDS011;27185;52.040;4.490;2024-02-21T15:20:31;12.73;;;7.40;;
41446;SDS011;27185;52.040;4.490;2024-02-21T15:23:39;9.20;;;5.40;;
41446;SDS011;27185;52.040;4.490;2024-02-21T15:26:36;10.70;;;7.03;;
41446;SDS011;27185;52.040;4.490;2024-02-21T15:29:27;12.70;;;8.32;;
41446;SDS011;27185;52.040;4.490;2024-02-21T15:32:15;11.52;;;7.40;;
41446;SDS011;27185;52.040;4.490;2024-02-21T15:38:31;12.73;;;8.10;;
41446;SDS011;27185;52.040;4.490;2024-02-21T15:41:31;12.50;;;8.00;;
41446;SDS011;27185;52.040;4.490;2024-02-21T15:44:25;14.82;;;8.40;;
41446;SDS011;27185;52.040;4.490;2024-02-21T15:47:27;13.18;;;8.60;;
41446;SDS011;27185;52.040;4.490;2024-02-21T15:50:24;12.55;;;9.55;;
41446;SDS011;27185;52.040;4.490;2024-02-21T15:53:18;11.93;;;8.50;;
41446;SDS011;27185;52.040;4.490;2024-02-21T15:56:19;13.07;;;8.73;;
41446;SDS011;27185;52.040;4.490;2024-02-21T15:59:10;13.98;;;8.18;;
41446;SDS011;27185;52.040;4.490;2024-02-21T16:02:07;11.02;;;7.40;;
41446;SDS011;27185;52.040;4.490;2024-02-21T16:05:10;16.48;;;8.88;;
41446;SDS011;27185;52.040;4.490;2024-02-21T16:08:17;12.13;;;8.68;;
41446;SDS011;27185;52.040;4.490;2024-02-21T16:11:13;10.75;;;8.77;;
41446;SDS011;27185;52.040;4.490;2024-02-21T16:14:08;16.73;;;8.77;;
41446;SDS011;27185;52.040;4.490;2024-02-21T16:17:06;15.35;;;8.10;;
41446;SDS011;27185;52.040;4.490;2024-02-21T16:26:59;13.27;;;8.93;;
41446;SDS011;27185;52.040;4.490;2024-02-21T16:30:07;14.25;;;8.13;;
41446;SDS011;27185;52.040;4.490;2024-02-21T16:33:06;11.25;;;7.47;;
41446;SDS011;27185;52.040;4.490;2024-02-21T16:35:59;12.63;;;8.48;;
41446;SDS011;27185;52.040;4.490;2024-02-21T16:38:54;10.32;;;6.72;;
41446;SDS011;27185;52.040;4.490;2024-02-21T16:41:51;10.27;;;6.70;;
41446;SDS011;27185;52.040;4.490;2024-02-21T16:44:49;12.10;;;7.03;;
41446;SDS011;27185;52.040;4.490;2024-02-21T16:47:36;12.85;;;7.25;;